createdAt,value
2023-01-29T00:01:08.680Z,100934.56
2023-01-29T00:03:36.588Z,100933.09
2023-01-29T00:06:08.010Z,100936.22
2023-01-29T00:08:38.924Z,100937.38
2023-01-29T00:11:07.578Z,100932.03
2023-01-29T00:13:35.305Z,100939.41
2023-01-29T00:16:03.104Z,100935.75
2023-01-29T00:18:31.178Z,100944.56
2023-01-29T00:20:59.437Z,100941.88
2023-01-29T00:23:27.204Z,100936.22
2023-01-29T00:25:55.025Z,100935.00
2023-01-29T00:28:22.815Z,100932.59
2023-01-29T00:30:50.701Z,100939.94
2023-01-29T00:33:18.248Z,100940.09
2023-01-29T00:35:47.117Z,100935.81
2023-01-29T00:38:14.929Z,100934.84
2023-01-29T00:41:01.035Z,100946.28
2023-01-29T00:43:47.062Z,100940.09
2023-01-29T00:46:14.896Z,100944.25
2023-01-29T00:48:42.503Z,100939.13
2023-01-29T00:51:10.869Z,100947.16
2023-01-29T00:53:38.492Z,100945.56
2023-01-29T00:56:06.439Z,100946.06
2023-01-29T00:58:36.810Z,100951.56
2023-01-29T01:01:04.759Z,100948.97
2023-01-29T01:03:35.395Z,100947.88
2023-01-29T01:06:07.067Z,100949.44
2023-01-29T01:08:53.002Z,100943.63
2023-01-29T01:11:21.110Z,100939.63
2023-01-29T01:13:48.634Z,100940.16
2023-01-29T01:16:18.849Z,100934.78
2023-01-29T01:18:46.383Z,100935.00
2023-01-29T01:21:14.048Z,100934.69
2023-01-29T01:23:41.575Z,100935.91
2023-01-29T01:26:11.100Z,100935.25
2023-01-29T01:28:39.706Z,100941.69
2023-01-29T01:31:11.468Z,100941.06
2023-01-29T01:33:39.266Z,100939.66
2023-01-29T01:36:11.747Z,100932.38
2023-01-29T01:38:45.362Z,100935.03
2023-01-29T01:41:14.760Z,100935.69
2023-01-29T01:43:58.292Z,100934.66
2023-01-29T01:46:28.827Z,100934.13
2023-01-29T01:48:59.392Z,100933.06
2023-01-29T01:51:27.320Z,100925.03
2023-01-29T01:54:09.971Z,100926.31
2023-01-29T01:56:41.510Z,100917.44
2023-01-29T01:59:18.897Z,100916.81
2023-01-29T02:01:50.656Z,100924.50
2023-01-29T02:04:39.816Z,100929.13
2023-01-29T02:07:27.049Z,100929.34
2023-01-29T02:10:12.962Z,100913.50
2023-01-29T02:12:41.133Z,100912.63
2023-01-29T02:15:09.867Z,100911.22
2023-01-29T02:17:38.942Z,100914.38
2023-01-29T02:20:10.067Z,100904.72
2023-01-29T02:23:03.639Z,100902.78
2023-01-29T02:26:05.599Z,100905.81
2023-01-29T02:28:54.665Z,100913.19
2023-01-29T02:31:29.547Z,100901.06
2023-01-29T02:34:21.177Z,100905.06
2023-01-29T02:37:03.546Z,100909.00
2023-01-29T02:39:37.756Z,100910.94
2023-01-29T02:42:28.089Z,100914.16
2023-01-29T02:45:14.339Z,100905.25
2023-01-29T02:47:47.836Z,100907.69
2023-01-29T02:50:20.657Z,100919.59
2023-01-29T02:53:01.745Z,100908.44
2023-01-29T02:55:33.879Z,100916.72
2023-01-29T02:58:07.798Z,100913.38
2023-01-29T03:00:38.406Z,100918.69
2023-01-29T03:03:19.771Z,100909.72
2023-01-29T03:06:12.404Z,100907.69
2023-01-29T03:08:43.223Z,100910.66
2023-01-29T03:11:15.335Z,100913.03
2023-01-29T03:13:52.953Z,100906.59
2023-01-29T03:16:31.183Z,100906.81
2023-01-29T03:19:17.437Z,100914.84
2023-01-29T03:21:55.435Z,100913.13
2023-01-29T08:08:28.091Z,100957.81
2023-01-29T08:11:05.965Z,100957.13
2023-01-29T08:13:33.927Z,100964.69
2023-01-29T08:16:04.146Z,100965.19
2023-01-29T08:18:32.917Z,100966.00
2023-01-29T08:21:02.135Z,100964.00
2023-01-29T08:23:32.146Z,100965.44
2023-01-29T08:26:00.033Z,100963.19
2023-01-29T08:28:27.779Z,100956.31
2023-01-29T08:30:55.488Z,100975.19
2023-01-29T08:33:38.087Z,100969.06
2023-01-29T08:36:08.007Z,100963.13
2023-01-29T08:38:36.502Z,100977.66
2023-01-29T08:41:07.810Z,100977.72
2023-01-29T08:43:40.022Z,100979.06
2023-01-29T08:46:07.809Z,100978.56
2023-01-29T08:48:35.465Z,100975.53
2023-01-29T08:51:04.587Z,100971.03
2023-01-29T08:53:32.548Z,100969.81
2023-01-29T08:56:00.712Z,100964.38
2023-01-29T08:58:28.246Z,100973.59
2023-01-29T09:00:55.969Z,100974.06
2023-01-29T09:03:24.629Z,100976.84
2023-01-29T09:05:52.300Z,100976.75
2023-01-29T09:08:20.501Z,100969.44
2023-01-29T09:10:48.157Z,100970.25
2023-01-29T09:13:15.768Z,100969.22
2023-01-29T09:15:43.481Z,100965.75
2023-01-29T09:18:11.180Z,100963.38
2023-01-29T09:20:39.196Z,100963.31
2023-01-29T09:23:07.708Z,100965.69
2023-01-29T09:38:23.669Z,100969.03
2023-01-29T09:41:09.461Z,100961.38
2023-01-29T11:45:23.060Z,100909.97
2023-01-29T11:47:53.010Z,100918.09
2023-01-29T11:50:25.222Z,100923.78
2023-01-29T11:52:52.781Z,100924.50
2023-01-29T11:55:21.616Z,100917.75
2023-01-29T11:58:02.147Z,100920.81
2023-01-29T12:00:34.548Z,100926.19
2023-01-29T12:03:24.891Z,100927.16
2023-01-29T12:06:04.053Z,100907.28
2023-01-29T12:08:36.701Z,100926.94
2023-01-29T12:11:13.256Z,100925.69
2023-01-29T12:13:43.454Z,100922.78
2023-01-29T12:16:25.795Z,100923.75
2023-01-29T12:19:07.524Z,100932.59
2023-01-29T12:21:37.565Z,100937.22
2023-01-29T12:24:21.650Z,100940.91
2023-01-29T12:27:17.224Z,100934.47
2023-01-29T12:29:57.117Z,100932.53
2023-01-29T12:32:43.548Z,100926.22
2023-01-29T12:35:11.165Z,100935.50
2023-01-29T12:38:09.302Z,100934.34
2023-01-29T12:41:21.783Z,100936.28
2023-01-29T12:55:29.732Z,100945.16
2023-01-29T12:57:58.905Z,100944.44
2023-01-29T13:00:32.633Z,100950.44
2023-01-29T13:03:22.071Z,100954.88
2023-01-29T13:05:55.567Z,100952.63
2023-01-29T13:08:32.939Z,100950.91
2023-01-29T13:11:04.163Z,100960.66
2023-01-29T13:13:54.042Z,100966.34
2023-01-29T13:16:30.958Z,100970.28
2023-01-29T13:19:00.119Z,100977.16
2023-01-29T13:21:31.144Z,100975.66
2023-01-29T13:24:02.665Z,100976.41
2023-01-29T13:26:32.809Z,100975.44
2023-01-29T13:29:01.666Z,100969.38
2023-01-29T13:31:29.451Z,100971.84
2023-01-29T13:34:14.235Z,100969.34
2023-01-29T13:36:46.681Z,100971.38
2023-01-29T13:39:27.388Z,100974.44
2023-01-29T13:41:55.487Z,100982.53
2023-01-29T13:44:24.341Z,100979.66
2023-01-29T13:46:59.443Z,100984.25
2023-01-29T13:49:32.153Z,100980.75
2023-01-29T13:52:00.185Z,100982.22
2023-01-29T13:54:28.206Z,100983.25
2023-01-29T13:57:02.189Z,100978.13
2023-01-29T13:59:51.023Z,100980.88
2023-01-29T14:02:25.952Z,100982.78
2023-01-29T14:05:31.440Z,100976.78
2023-01-29T14:08:29.236Z,100985.31
2023-01-29T14:11:15.425Z,100990.69
2023-01-29T14:13:44.413Z,100989.91
2023-01-29T14:16:12.738Z,100992.06
2023-01-29T14:18:55.526Z,100992.19
2023-01-29T14:21:25.495Z,100983.72
2023-01-29T14:23:59.130Z,100990.13
2023-01-29T14:26:35.117Z,100994.28
2023-01-29T14:29:08.239Z,100989.91
2023-01-29T14:31:41.828Z,100990.75
2023-01-29T14:34:24.344Z,100989.09
2023-01-29T14:36:55.715Z,101010.19
2023-01-29T14:39:53.814Z,101005.47
2023-01-29T14:42:21.323Z,101014.56
2023-01-29T14:45:15.511Z,101003.84
2023-01-29T14:47:46.419Z,101017.38
2023-01-29T14:50:29.310Z,101018.88
2023-01-29T14:53:24.652Z,101029.06
2023-01-29T14:56:02.130Z,101029.38
2023-01-29T14:58:42.934Z,101033.03
2023-01-29T15:01:29.632Z,101037.72
2023-01-29T15:04:04.144Z,101036.88
2023-01-29T15:06:45.968Z,101036.34
2023-01-29T15:09:16.665Z,101043.22
2023-01-29T15:12:31.793Z,101040.06
2023-01-29T15:15:12.312Z,101034.97
2023-01-29T15:17:59.230Z,101032.38
2023-01-29T15:20:32.040Z,101027.03
2023-01-29T15:23:00.995Z,101027.88
2023-01-29T15:25:29.794Z,101033.22
2023-01-29T15:27:57.352Z,101037.31
2023-01-29T15:30:29.378Z,101032.72
2023-01-29T15:32:56.957Z,101031.09
2023-01-29T15:35:43.027Z,101029.38
2023-01-29T15:38:19.449Z,101035.06
2023-01-29T15:41:03.846Z,101026.81
2023-01-29T15:43:35.300Z,101019.19
2023-01-29T15:46:10.829Z,101014.03
2023-01-29T15:48:40.686Z,101028.63
2023-01-29T15:51:08.801Z,101032.59
2023-01-29T15:53:38.773Z,101033.13
2023-01-29T15:56:10.682Z,101034.31
2023-01-29T15:58:38.594Z,101054.13
2023-01-29T16:01:06.552Z,101051.25
2023-01-29T16:03:34.391Z,101046.84
2023-01-29T16:06:02.348Z,101052.53
2023-01-29T16:08:30.091Z,101048.34
2023-01-29T16:11:05.164Z,101046.31
2023-01-29T16:13:37.153Z,101055.75
2023-01-29T16:16:16.420Z,101048.13
2023-01-29T16:18:58.956Z,101048.88
2023-01-29T16:21:37.654Z,101047.91
2023-01-29T16:24:16.050Z,101051.53
2023-01-29T16:26:45.260Z,101044.50
2023-01-29T16:29:17.452Z,101057.44
2023-01-29T16:31:45.944Z,101063.56
2023-01-29T16:34:27.849Z,101065.38
2023-01-29T16:36:55.724Z,101052.75
2023-01-29T16:39:28.297Z,101059.81
2023-01-29T16:42:12.414Z,101055.06
2023-01-29T16:44:40.290Z,101056.63
2023-01-29T16:47:23.998Z,101060.09
2023-01-29T16:49:55.971Z,101059.81
2023-01-29T16:52:31.536Z,101064.84
2023-01-29T16:55:00.912Z,101062.03
2023-01-29T16:57:31.678Z,101070.06
2023-01-29T17:00:03.804Z,101070.53
2023-01-29T17:02:35.657Z,101066.53
2023-01-29T17:05:10.990Z,101067.63
2023-01-29T17:07:39.909Z,101058.09
2023-01-29T17:10:07.879Z,101068.59
2023-01-29T17:12:38.903Z,101077.25
2023-01-29T17:15:29.313Z,101072.53
2023-01-29T17:17:57.119Z,101082.19
2023-01-29T17:20:24.794Z,101077.56
2023-01-29T17:22:52.805Z,101084.00
2023-01-29T17:25:24.584Z,101088.47
2023-01-29T17:27:52.647Z,101090.28
2023-01-29T17:30:21.784Z,101084.44
2023-01-29T17:32:49.499Z,101094.28
2023-01-29T17:35:17.656Z,101087.88
2023-01-29T17:37:45.749Z,101094.91
2023-01-29T17:40:27.657Z,101094.50
2023-01-29T17:42:55.454Z,101094.81
2023-01-29T17:45:23.212Z,101094.16
2023-01-29T17:47:54.067Z,101094.28
2023-01-29T17:50:23.632Z,101099.66
2023-01-29T17:52:51.191Z,101096.09
2023-01-29T17:55:19.341Z,101092.84
2023-01-29T17:57:47.531Z,101103.28
2023-01-29T18:00:15.542Z,101100.91
2023-01-29T18:02:47.055Z,101101.28
2023-01-29T18:05:16.095Z,101101.53
2023-01-29T18:07:44.976Z,101103.66
2023-01-29T18:10:15.495Z,101104.50
2023-01-29T18:12:43.137Z,101098.75
2023-01-29T18:15:11.351Z,101106.69
2023-01-29T18:17:39.838Z,101117.34
2023-01-29T18:20:22.111Z,101109.63
2023-01-29T18:22:49.698Z,101108.16
2023-01-29T18:25:17.778Z,101114.34
2023-01-29T18:27:46.263Z,101104.19
2023-01-29T18:30:14.365Z,101097.69
2023-01-29T18:32:42.405Z,101099.78
2023-01-29T18:35:10.211Z,101094.63
2023-01-29T18:37:38.112Z,101096.53
2023-01-29T18:40:06.831Z,101087.03
2023-01-29T18:42:36.183Z,101094.88
2023-01-29T18:45:04.382Z,101097.13
2023-01-29T18:47:32.134Z,101099.78
2023-01-29T18:50:00.300Z,101089.47
2023-01-29T18:52:27.843Z,101091.16
2023-01-29T18:54:55.736Z,101080.72
2023-01-29T18:58:28.793Z,101075.34
2023-01-29T19:00:11.497Z,101075.56
2023-01-29T19:02:39.088Z,101076.28
2023-01-29T19:05:06.992Z,101082.78
2023-01-29T19:07:40.130Z,101083.34
2023-01-29T19:10:09.562Z,101091.50
2023-01-29T19:12:41.505Z,101087.94
2023-01-29T19:15:09.789Z,101094.75
2023-01-29T19:17:38.385Z,101096.59
2023-01-29T19:20:06.648Z,101097.72
2023-01-29T19:22:34.929Z,101100.03
2023-01-29T19:25:02.653Z,101096.47
2023-01-29T19:27:30.700Z,101107.19
2023-01-29T19:29:59.632Z,101103.63
2023-01-29T19:32:29.015Z,101112.03
2023-01-29T19:34:57.941Z,101116.44
2023-01-29T19:37:25.648Z,101121.97
2023-01-29T19:39:53.992Z,101115.00
2023-01-29T19:42:21.670Z,101124.03
2023-01-29T19:44:51.184Z,101122.28
2023-01-29T19:47:18.789Z,101117.69
2023-01-29T19:49:46.709Z,101124.53
2023-01-29T19:52:49.763Z,101127.53
2023-01-29T19:55:19.056Z,101128.19
2023-01-29T19:57:47.108Z,101131.44
2023-01-29T20:00:15.678Z,101134.31
2023-01-29T20:02:46.308Z,101124.28
2023-01-29T20:05:14.628Z,101124.41
2023-01-29T20:07:42.794Z,101120.91
2023-01-29T20:10:15.372Z,101125.22
2023-01-29T20:12:45.007Z,101129.31
2023-01-29T20:15:13.559Z,101123.63
2023-01-29T20:17:41.346Z,101122.84
2023-01-29T20:20:09.872Z,101122.91
2023-01-29T20:22:37.536Z,101124.69
2023-01-29T20:25:07.710Z,101125.97
2023-01-29T20:27:35.903Z,101127.00
2023-01-29T20:30:03.844Z,101127.53
2023-01-29T20:32:33.061Z,101133.53
2023-01-29T20:35:00.644Z,101127.72
2023-01-29T20:37:28.274Z,101130.56
2023-01-29T20:39:56.103Z,101133.06
2023-01-29T20:42:24.372Z,101131.19
2023-01-29T20:44:51.960Z,101139.66
2023-01-29T20:47:19.709Z,101137.00
2023-01-29T20:49:50.543Z,101143.97
2023-01-29T20:52:18.303Z,101138.72
2023-01-29T20:54:46.173Z,101142.84
2023-01-29T20:57:15.009Z,101142.25
2023-01-29T20:59:42.849Z,101135.03
2023-01-29T21:02:12.014Z,101128.13
2023-01-29T21:04:41.081Z,101136.44
2023-01-29T21:07:12.767Z,101153.75
2023-01-29T21:09:42.128Z,101141.63
2023-01-29T21:12:10.799Z,101147.84
2023-01-29T21:14:38.718Z,101150.72
2023-01-29T21:17:09.390Z,101148.00
2023-01-29T21:19:36.967Z,101162.13
2023-01-29T21:22:04.895Z,101162.16
2023-01-29T21:24:33.855Z,101157.47
2023-01-29T21:27:01.803Z,101157.19
2023-01-29T21:29:29.776Z,101148.09
2023-01-29T21:31:58.345Z,101149.66
2023-01-29T21:34:26.224Z,101154.31
2023-01-29T21:36:53.913Z,101153.13
2023-01-29T21:39:24.441Z,101153.09
2023-01-29T21:42:10.522Z,101151.91
2023-01-29T21:44:39.731Z,101157.94
2023-01-29T21:47:12.563Z,101161.84
2023-01-29T21:49:43.932Z,101155.00
2023-01-29T21:52:12.323Z,101155.00
2023-01-29T21:54:40.857Z,101146.78
2023-01-29T21:57:12.729Z,101150.53
2023-01-29T21:59:40.332Z,101142.75
2023-01-29T22:02:12.881Z,101144.69
2023-01-29T22:04:42.166Z,101147.28
2023-01-29T22:07:11.312Z,101146.78
